Valor — WDD8691 — position and weather

sailwx.info

Track history (hours):
 
Tides and Currents Weather Stations Pressure Air Temp Water Temp Dewpoint Dewpoint Depression Visibility Wind Speed Wind Dir Waves Ship Positions

Valor

Owner: Crowley Marine Services, Seattle, WA. More information available from US FCC via Universal Licensing System and Coast Guard Vessel Documentation Center.

Last reported at 2016-May-29 01:34 UTC. Time now 2016-May-29 01:57 UTC.
Position N 38°03' W 122°16'.

Length 8 m; draft 5.5 m.

Type: Tug. MMSI: 367301480.

Date/timePositionNaut miles runAvg speedWind from/ knotsBaromVisibWave heightAir tempDewpointWater temp
2016-May-29 01:34N 38°03' W 122°16'1 0.3
2016-May-28 22:24N 38°03' W 122°15'16 5.4
2016-May-28 19:29N 37°49' W 122°24'1 0.4
2016-May-28 16:33N 37°48' W 122°24'0 0.0
2016-May-28 15:34N 37°48' W 122°24'3 1.0
2016-May-28 12:29N 37°49' W 122°20'1 1.4
2016-May-28 11:33N 37°48' W 122°19'0 0.0
2016-May-28 10:34N 37°48' W 122°19'5 2.6
2016-May-28 08:33N 37°51' W 122°24'9 9.3
2016-May-28 07:33N 38°01' W 122°24'1010.5
2016-May-28 06:33N 38°03' W 122°11'2 1.9
2016-May-28 05:15N 38°02' W 122°08'3 4.9
2016-May-28 04:33N 38°03' W 122°12'11 9.6
2016-May-28 03:27N 38°00' W 122°25'9 9.1
2016-May-28 02:24N 37°51' W 122°24'6 6.7
2016-May-28 01:33N 37°49' W 122°31'3 3.4
2016-May-28 00:33N 37°49' W 122°27'2 2.4
2016-May-27 23:33N 37°48' W 122°24'0 0.0
2016-May-27 22:33N 37°48' W 122°24'0 0.0
2016-May-27 21:32N 37°48' W 122°24'4 0.6
2016-May-27 14:30N 37°48' W 122°19'3 1.4
2016-May-27 12:20N 37°48' W 122°23'3 0.9
2016-May-27 08:33N 37°49' W 122°19'0 0.0
2016-May-27 07:33N 37°49' W 122°19'0 0.0
2016-May-27 06:33N 37°49' W 122°19'0 0.0
2016-May-27 05:33N 37°49' W 122°19'0 0.0
2016-May-27 01:33N 37°49' W 122°19'0 0.0
2016-May-26 23:16N 37°49' W 122°19'0 0.0
2016-May-26 22:32N 37°49' W 122°19'0 0.0
2016-May-26 21:21N 37°49' W 122°19'0 0.0
2016-May-26 20:33N 37°49' W 122°19'0 0.0
2016-May-26 19:33N 37°49' W 122°19'0 0.0
2016-May-26 18:34N 37°49' W 122°19'0 0.0
2016-May-26 16:33N 37°49' W 122°19'0 0.0
2016-May-26 15:34N 37°49' W 122°19'0 0.0
2016-May-26 14:33N 37°49' W 122°19'0 0.0
2016-May-26 13:34N 37°49' W 122°19'0 0.0
2016-May-26 12:34N 37°49' W 122°19'0 0.0
2016-May-26 11:33N 37°49' W 122°19'0 0.0
2016-May-26 10:33N 37°49' W 122°19'0 0.0
2016-May-26 09:33N 37°49' W 122°19'0 0.0
2016-May-26 08:33N 37°49' W 122°19'0 0.0
2016-May-26 07:34N 37°49' W 122°19'0 0.0
2016-May-26 06:34N 37°49' W 122°19'0 0.0
2016-May-26 05:33N 37°49' W 122°19'0 0.0
2016-May-26 04:33N 37°49' W 122°19'0 0.0
2016-May-26 03:33N 37°49' W 122°19'0 0.0
2016-May-26 02:33N 37°49' W 122°19'3 3.3
2016-May-26 01:34N 37°48' W 122°23'1 1.0
2016-May-26 00:34N 37°48' W 122°24'0 0.0
2016-May-25 23:34N 37°48' W 122°24'0 0.0
2016-May-25 22:34N 37°48' W 122°24'0 0.0
2016-May-25 21:34N 37°48' W 122°24'0 0.0
2016-May-25 20:33N 37°48' W 122°24'0 0.0
2016-May-25 19:34N 37°48' W 122°24'4 4.3
2016-May-25 18:33N 37°49' W 122°19'0 0.0
2016-May-25 17:33N 37°49' W 122°19'0 0.0
2016-May-25 16:34N 37°49' W 122°19'0 0.0
2016-May-25 15:34N 37°49' W 122°19'2 1.6
2016-May-25 14:33N 37°48' W 122°20'1 0.6
2016-May-25 13:33N 37°48' W 122°19'2 1.6
2016-May-25 12:34N 37°49' W 122°19'0 0.0
2016-May-25 11:33N 37°49' W 122°19'0 0.0
2016-May-25 10:34N 37°49' W 122°19'0 0.0
2016-May-25 09:33N 37°49' W 122°19'0 0.0
2016-May-25 08:34N 37°49' W 122°19'0 0.0
2016-May-25 07:34N 37°49' W 122°19'9 8.8
2016-May-25 06:34N 37°48' W 122°30'4 3.6
2016-May-25 05:34N 37°51' W 122°26'7 6.7
2016-May-25 04:34N 37°45' W 122°21'3 2.6
2016-May-25 03:34N 37°48' W 122°19'2 1.6
2016-May-25 02:33N 37°48' W 122°17'4 4.4
2016-May-25 01:34N 37°48' W 122°23'2 1.6
2016-May-25 00:33N 37°49' W 122°24'1110.8
2016-May-24 23:33N 37°60' W 122°25'8 7.6
2016-May-24 22:32N 38°03' W 122°16'0 0.0
2016-May-24 21:33N 38°03' W 122°16'1 1.3
2016-May-24 20:34N 38°03' W 122°17'2 0.7
2016-May-24 17:30N 38°04' W 122°15'3 0.9
2016-May-24 14:28N 38°03' W 122°11'7 7.8
2016-May-24 13:33N 38°03' W 122°20'8 8.0
2016-May-24 12:32N 37°56' W 122°27'9 9.5
2016-May-24 11:34N 37°48' W 122°22'4 4.0
2016-May-24 10:33N 37°44' W 122°20'3 3.5
2016-May-24 09:34N 37°48' W 122°20'2 1.7
2016-May-24 08:33N 37°48' W 122°18'0 0.0
2016-May-24 07:33N 37°48' W 122°18'2 1.9
2016-May-24 06:34N 37°49' W 122°19'0 0.0
2016-May-24 05:34N 37°49' W 122°19'0 0.0
2016-May-24 04:33N 37°49' W 122°19'0 0.0
2016-May-24 03:33N 37°49' W 122°19'0 0.0
2016-May-24 02:33N 37°49' W 122°19'0 0.0
2016-May-24 01:34N 37°49' W 122°19'0 0.2
2016-May-24 00:34N 37°49' W 122°19'7 7.5
2016-May-23 23:33N 37°55' W 122°25'8 8.1
2016-May-23 22:33N 38°02' W 122°21'8 1.1
2016-May-23 15:14N 38°03' W 122°11'6 7.5
2016-May-23 14:29N 38°03' W 122°18'7 7.9
2016-May-23 13:32N 37°59' W 122°25'5 5.1
2016-May-23 12:34N 37°55' W 122°22'0 0.0
2016-May-23 11:34N 37°55' W 122°22'0 0.1
2016-May-23 10:33N 37°55' W 122°22'0 0.0
2016-May-23 09:34N 37°55' W 122°22'0 0.0
2016-May-23 08:34N 37°55' W 122°22'0 0.0
2016-May-23 07:34N 37°55' W 122°22'0 0.0
2016-May-23 06:34N 37°55' W 122°22'0 0.0
2016-May-23 05:34N 37°55' W 122°22'8 8.3
2016-May-23 04:33N 37°49' W 122°29'3 3.4
2016-May-23 03:33N 37°51' W 122°25'1010.1
2016-May-23 02:33N 38°01' W 122°24'8 7.3
2016-May-23 01:26N 38°04' W 122°15'0 0.1
2016-May-23 00:31N 38°03' W 122°15'0 0.0
2016-May-22 23:33N 38°03' W 122°15'0 0.0
2016-May-22 22:33N 38°03' W 122°15'0 0.0
2016-May-22 21:34N 38°03' W 122°15'0 0.0
2016-May-22 20:33N 38°03' W 122°15'0 0.0
2016-May-22 19:33N 38°03' W 122°15'0 0.0
2016-May-22 18:33N 38°03' W 122°15'0 0.0
2016-May-22 17:33N 38°03' W 122°15'0 0.0
2016-May-22 16:34N 38°03' W 122°15'0 0.0
2016-May-22 15:33N 38°03' W 122°15'0 0.0
2016-May-22 14:33N 38°03' W 122°15'0 0.0
2016-May-22 13:34N 38°03' W 122°15'0 0.0
2016-May-22 12:31N 38°03' W 122°15'0 0.0
2016-May-22 10:32N 38°03' W 122°15'0 0.0
2016-May-22 09:33N 38°03' W 122°15'3 0.9
2016-May-22 06:24N 38°03' W 122°11'10 9.8
2016-May-22 05:22N 38°01' W 122°24'1011.9
2016-May-22 04:34N 37°51' W 122°25'8 8.1
2016-May-22 03:34N 37°44' W 122°20'0 0.5
2016-May-22 02:34N 37°45' W 122°20'5 4.6
2016-May-22 01:34N 37°49' W 122°23'1111.2
2016-May-22 00:33N 37°60' W 122°25'10 2.4
2016-May-21 20:21N 38°04' W 122°13'9 9.0
2016-May-21 19:20N 38°01' W 122°24'8 9.9
2016-May-21 18:33N 37°53' W 122°25'6 6.1
2016-May-21 17:34N 37°49' W 122°19'0 0.0
2016-May-21 16:34N 37°49' W 122°19'0 0.0
2016-May-21 15:33N 37°49' W 122°19'0 0.0
2016-May-21 14:34N 37°49' W 122°19'2 1.5
2016-May-21 13:34N 37°48' W 122°19'1 1.4
2016-May-21 12:33N 37°48' W 122°18'4 3.9
2016-May-21 11:34N 37°48' W 122°22'3 3.1
2016-May-21 10:33N 37°49' W 122°19'0 0.0
2016-May-21 09:34N 37°49' W 122°19'0 0.0
2016-May-21 08:33N 37°49' W 122°19'0 0.0
2016-May-21 07:33N 37°49' W 122°19'0 0.0
2016-May-21 06:33N 37°49' W 122°19'0 0.0
2016-May-21 05:33N 37°49' W 122°19'0 0.0
2016-May-21 04:33N 37°49' W 122°19'0 0.0
2016-May-21 03:33N 37°49' W 122°19'0 0.0
2016-May-21 02:33N 37°49' W 122°19'0 0.0
2016-May-21 01:33N 37°49' W 122°19'0 0.0
2016-May-21 00:33N 37°49' W 122°19'0 0.0
2016-May-20 23:33N 37°49' W 122°19'0 0.0
2016-May-20 22:33N 37°49' W 122°19'2 1.6
2016-May-20 21:33N 37°48' W 122°19'0 0.5
2016-May-20 20:33N 37°48' W 122°18'3 3.1
2016-May-20 19:34N 37°48' W 122°22'2 1.6
2016-May-20 18:33N 37°49' W 122°20'0 0.0
2016-May-20 17:33N 37°49' W 122°20'0 0.0
2016-May-20 16:33N 37°49' W 122°20'0 0.0
2016-May-20 15:33N 37°49' W 122°20'0 0.5
2016-May-20 14:33N 37°48' W 122°21'3 2.9
2016-May-20 13:33N 37°49' W 122°24'1 0.6
2016-May-20 12:33N 37°48' W 122°24'0 0.0
2016-May-20 11:33N 37°48' W 122°24'0 0.0
2016-May-20 10:33N 37°48' W 122°24'0 0.0
2016-May-20 09:33N 37°48' W 122°24'7 7.1
2016-May-20 08:33N 37°55' W 122°25'3 2.5
2016-May-20 07:33N 37°55' W 122°22'4 4.4
2016-May-20 06:34N 37°50' W 122°22'3 2.9
2016-May-20 05:33N 37°49' W 122°19'0 0.0
2016-May-20 04:33N 37°49' W 122°19'0 0.0
2016-May-20 03:33N 37°49' W 122°19'0 0.0
2016-May-20 02:33N 37°49' W 122°19'0 0.0
2016-May-20 01:33N 37°49' W 122°19'7 6.7
2016-May-20 00:33N 37°54' W 122°25'3 2.7
2016-May-19 23:33N 37°55' W 122°22'3 2.5
2016-May-19 22:26N 37°54' W 122°25'2 2.6
2016-May-19 21:33N 37°52' W 122°24'5 5.1
2016-May-19 20:33N 37°49' W 122°19'0 0.0
2016-May-19 19:33N 37°49' W 122°19'0 0.0
2016-May-19 18:33N 37°49' W 122°19'0 0.0
2016-May-19 17:33N 37°49' W 122°19'0 0.0
2016-May-19 16:33N 37°49' W 122°19'0 0.0
2016-May-19 15:33N 37°49' W 122°19'2 1.8
2016-May-19 14:33N 37°48' W 122°21'1 1.1
2016-May-19 13:33N 37°48' W 122°19'0 0.4
2016-May-19 12:33N 37°48' W 122°19'1 1.2
2016-May-19 11:33N 37°49' W 122°19'1 0.7
2016-May-19 10:33N 37°49' W 122°19'0 0.0
2016-May-19 09:33N 37°49' W 122°19'0 0.0
2016-May-19 08:33N 37°49' W 122°19'0 0.0
2016-May-19 07:33N 37°49' W 122°19'0 0.0
2016-May-19 06:33N 37°49' W 122°19'0 0.0
2016-May-19 05:34N 37°49' W 122°19'0 0.0
2016-May-19 04:33N 37°49' W 122°19'0 0.0
2016-May-19 03:33N 37°49' W 122°19'0 0.0
2016-May-19 02:33N 37°49' W 122°19'  
Track history (hours):
 
Tides and Currents Weather Stations Pressure Air Temp Water Temp Dewpoint Dewpoint Depression Visibility Wind Speed Wind Dir Waves Ship Positions

Valor

Owner: Crowley Marine Services, Seattle, WA. More information available from US FCC via Universal Licensing System and Coast Guard Vessel Documentation Center.

Last reported at 2016-May-29 01:34 UTC. Time now 2016-May-29 01:57 UTC.
Position N 38°03' W 122°16'.

Length 8 m; draft 5.5 m.

Type: Tug. MMSI: 367301480.

Date/timePositionNaut miles runAvg speedWind from/ knotsBaromVisibWave heightAir tempDewpointWater temp
2016-May-29 01:34N 38°03' W 122°16'1 0.3
2016-May-28 22:24N 38°03' W 122°15'16 5.4
2016-May-28 19:29N 37°49' W 122°24'1 0.4
2016-May-28 16:33N 37°48' W 122°24'0 0.0
2016-May-28 15:34N 37°48' W 122°24'3 1.0
2016-May-28 12:29N 37°49' W 122°20'1 1.4
2016-May-28 11:33N 37°48' W 122°19'0 0.0
2016-May-28 10:34N 37°48' W 122°19'5 2.6
2016-May-28 08:33N 37°51' W 122°24'9 9.3
2016-May-28 07:33N 38°01' W 122°24'1010.5
2016-May-28 06:33N 38°03' W 122°11'2 1.9
2016-May-28 05:15N 38°02' W 122°08'3 4.9
2016-May-28 04:33N 38°03' W 122°12'11 9.6
2016-May-28 03:27N 38°00' W 122°25'9 9.1
2016-May-28 02:24N 37°51' W 122°24'6 6.7
2016-May-28 01:33N 37°49' W 122°31'3 3.4
2016-May-28 00:33N 37°49' W 122°27'2 2.4
2016-May-27 23:33N 37°48' W 122°24'0 0.0
2016-May-27 22:33N 37°48' W 122°24'0 0.0
2016-May-27 21:32N 37°48' W 122°24'4 0.6
2016-May-27 14:30N 37°48' W 122°19'3 1.4
2016-May-27 12:20N 37°48' W 122°23'3 0.9
2016-May-27 08:33N 37°49' W 122°19'0 0.0
2016-May-27 07:33N 37°49' W 122°19'0 0.0
2016-May-27 06:33N 37°49' W 122°19'0 0.0
2016-May-27 05:33N 37°49' W 122°19'0 0.0
2016-May-27 01:33N 37°49' W 122°19'0 0.0
2016-May-26 23:16N 37°49' W 122°19'0 0.0
2016-May-26 22:32N 37°49' W 122°19'0 0.0
2016-May-26 21:21N 37°49' W 122°19'0 0.0
2016-May-26 20:33N 37°49' W 122°19'0 0.0
2016-May-26 19:33N 37°49' W 122°19'0 0.0
2016-May-26 18:34N 37°49' W 122°19'0 0.0
2016-May-26 16:33N 37°49' W 122°19'0 0.0
2016-May-26 15:34N 37°49' W 122°19'0 0.0
2016-May-26 14:33N 37°49' W 122°19'0 0.0
2016-May-26 13:34N 37°49' W 122°19'0 0.0
2016-May-26 12:34N 37°49' W 122°19'0 0.0
2016-May-26 11:33N 37°49' W 122°19'0 0.0
2016-May-26 10:33N 37°49' W 122°19'0 0.0
2016-May-26 09:33N 37°49' W 122°19'0 0.0
2016-May-26 08:33N 37°49' W 122°19'0 0.0
2016-May-26 07:34N 37°49' W 122°19'0 0.0
2016-May-26 06:34N 37°49' W 122°19'0 0.0
2016-May-26 05:33N 37°49' W 122°19'0 0.0
2016-May-26 04:33N 37°49' W 122°19'0 0.0
2016-May-26 03:33N 37°49' W 122°19'0 0.0
2016-May-26 02:33N 37°49' W 122°19'3 3.3
2016-May-26 01:34N 37°48' W 122°23'1 1.0
2016-May-26 00:34N 37°48' W 122°24'0 0.0
2016-May-25 23:34N 37°48' W 122°24'0 0.0
2016-May-25 22:34N 37°48' W 122°24'0 0.0
2016-May-25 21:34N 37°48' W 122°24'0 0.0
2016-May-25 20:33N 37°48' W 122°24'0 0.0
2016-May-25 19:34N 37°48' W 122°24'4 4.3
2016-May-25 18:33N 37°49' W 122°19'0 0.0
2016-May-25 17:33N 37°49' W 122°19'0 0.0
2016-May-25 16:34N 37°49' W 122°19'0 0.0
2016-May-25 15:34N 37°49' W 122°19'2 1.6
2016-May-25 14:33N 37°48' W 122°20'1 0.6
2016-May-25 13:33N 37°48' W 122°19'2 1.6
2016-May-25 12:34N 37°49' W 122°19'0 0.0
2016-May-25 11:33N 37°49' W 122°19'0 0.0
2016-May-25 10:34N 37°49' W 122°19'0 0.0
2016-May-25 09:33N 37°49' W 122°19'0 0.0
2016-May-25 08:34N 37°49' W 122°19'0 0.0
2016-May-25 07:34N 37°49' W 122°19'9 8.8
2016-May-25 06:34N 37°48' W 122°30'4 3.6
2016-May-25 05:34N 37°51' W 122°26'7 6.7
2016-May-25 04:34N 37°45' W 122°21'3 2.6
2016-May-25 03:34N 37°48' W 122°19'2 1.6
2016-May-25 02:33N 37°48' W 122°17'4 4.4
2016-May-25 01:34N 37°48' W 122°23'2 1.6
2016-May-25 00:33N 37°49' W 122°24'1110.8
2016-May-24 23:33N 37°60' W 122°25'8 7.6
2016-May-24 22:32N 38°03' W 122°16'0 0.0
2016-May-24 21:33N 38°03' W 122°16'1 1.3
2016-May-24 20:34N 38°03' W 122°17'2 0.7
2016-May-24 17:30N 38°04' W 122°15'3 0.9
2016-May-24 14:28N 38°03' W 122°11'7 7.8
2016-May-24 13:33N 38°03' W 122°20'8 8.0
2016-May-24 12:32N 37°56' W 122°27'9 9.5
2016-May-24 11:34N 37°48' W 122°22'4 4.0
2016-May-24 10:33N 37°44' W 122°20'3 3.5
2016-May-24 09:34N 37°48' W 122°20'2 1.7
2016-May-24 08:33N 37°48' W 122°18'0 0.0
2016-May-24 07:33N 37°48' W 122°18'2 1.9
2016-May-24 06:34N 37°49' W 122°19'0 0.0
2016-May-24 05:34N 37°49' W 122°19'0 0.0
2016-May-24 04:33N 37°49' W 122°19'0 0.0
2016-May-24 03:33N 37°49' W 122°19'0 0.0
2016-May-24 02:33N 37°49' W 122°19'0 0.0
2016-May-24 01:34N 37°49' W 122°19'0 0.2
2016-May-24 00:34N 37°49' W 122°19'7 7.5
2016-May-23 23:33N 37°55' W 122°25'8 8.1
2016-May-23 22:33N 38°02' W 122°21'8 1.1
2016-May-23 15:14N 38°03' W 122°11'6 7.5
2016-May-23 14:29N 38°03' W 122°18'7 7.9
2016-May-23 13:32N 37°59' W 122°25'5 5.1
2016-May-23 12:34N 37°55' W 122°22'0 0.0
2016-May-23 11:34N 37°55' W 122°22'0 0.1
2016-May-23 10:33N 37°55' W 122°22'0 0.0
2016-May-23 09:34N 37°55' W 122°22'0 0.0
2016-May-23 08:34N 37°55' W 122°22'0 0.0
2016-May-23 07:34N 37°55' W 122°22'0 0.0
2016-May-23 06:34N 37°55' W 122°22'0 0.0
2016-May-23 05:34N 37°55' W 122°22'8 8.3
2016-May-23 04:33N 37°49' W 122°29'3 3.4
2016-May-23 03:33N 37°51' W 122°25'1010.1
2016-May-23 02:33N 38°01' W 122°24'8 7.3
2016-May-23 01:26N 38°04' W 122°15'0 0.1
2016-May-23 00:31N 38°03' W 122°15'0 0.0
2016-May-22 23:33N 38°03' W 122°15'0 0.0
2016-May-22 22:33N 38°03' W 122°15'0 0.0
2016-May-22 21:34N 38°03' W 122°15'0 0.0
2016-May-22 20:33N 38°03' W 122°15'0 0.0
2016-May-22 19:33N 38°03' W 122°15'0 0.0
2016-May-22 18:33N 38°03' W 122°15'0 0.0
2016-May-22 17:33N 38°03' W 122°15'0 0.0
2016-May-22 16:34N 38°03' W 122°15'0 0.0
2016-May-22 15:33N 38°03' W 122°15'0 0.0
2016-May-22 14:33N 38°03' W 122°15'0 0.0
2016-May-22 13:34N 38°03' W 122°15'0 0.0
2016-May-22 12:31N 38°03' W 122°15'0 0.0
2016-May-22 10:32N 38°03' W 122°15'0 0.0
2016-May-22 09:33N 38°03' W 122°15'3 0.9
2016-May-22 06:24N 38°03' W 122°11'10 9.8
2016-May-22 05:22N 38°01' W 122°24'1011.9
2016-May-22 04:34N 37°51' W 122°25'8 8.1
2016-May-22 03:34N 37°44' W 122°20'0 0.5
2016-May-22 02:34N 37°45' W 122°20'5 4.6
2016-May-22 01:34N 37°49' W 122°23'1111.2
2016-May-22 00:33N 37°60' W 122°25'10 2.4
2016-May-21 20:21N 38°04' W 122°13'9 9.0
2016-May-21 19:20N 38°01' W 122°24'8 9.9
2016-May-21 18:33N 37°53' W 122°25'6 6.1
2016-May-21 17:34N 37°49' W 122°19'0 0.0
2016-May-21 16:34N 37°49' W 122°19'0 0.0
2016-May-21 15:33N 37°49' W 122°19'0 0.0
2016-May-21 14:34N 37°49' W 122°19'2 1.5
2016-May-21 13:34N 37°48' W 122°19'1 1.4
2016-May-21 12:33N 37°48' W 122°18'4 3.9
2016-May-21 11:34N 37°48' W 122°22'3 3.1
2016-May-21 10:33N 37°49' W 122°19'0 0.0
2016-May-21 09:34N 37°49' W 122°19'0 0.0
2016-May-21 08:33N 37°49' W 122°19'0 0.0
2016-May-21 07:33N 37°49' W 122°19'0 0.0
2016-May-21 06:33N 37°49' W 122°19'0 0.0
2016-May-21 05:33N 37°49' W 122°19'0 0.0
2016-May-21 04:33N 37°49' W 122°19'0 0.0
2016-May-21 03:33N 37°49' W 122°19'0 0.0
2016-May-21 02:33N 37°49' W 122°19'0 0.0
2016-May-21 01:33N 37°49' W 122°19'0 0.0
2016-May-21 00:33N 37°49' W 122°19'0 0.0
2016-May-20 23:33N 37°49' W 122°19'0 0.0
2016-May-20 22:33N 37°49' W 122°19'2 1.6
2016-May-20 21:33N 37°48' W 122°19'0 0.5
2016-May-20 20:33N 37°48' W 122°18'3 3.1
2016-May-20 19:34N 37°48' W 122°22'2 1.6
2016-May-20 18:33N 37°49' W 122°20'0 0.0
2016-May-20 17:33N 37°49' W 122°20'0 0.0
2016-May-20 16:33N 37°49' W 122°20'0 0.0
2016-May-20 15:33N 37°49' W 122°20'0 0.5
2016-May-20 14:33N 37°48' W 122°21'3 2.9
2016-May-20 13:33N 37°49' W 122°24'1 0.6
2016-May-20 12:33N 37°48' W 122°24'0 0.0
2016-May-20 11:33N 37°48' W 122°24'0 0.0
2016-May-20 10:33N 37°48' W 122°24'0 0.0
2016-May-20 09:33N 37°48' W 122°24'7 7.1
2016-May-20 08:33N 37°55' W 122°25'3 2.5
2016-May-20 07:33N 37°55' W 122°22'4 4.4
2016-May-20 06:34N 37°50' W 122°22'3 2.9
2016-May-20 05:33N 37°49' W 122°19'0 0.0
2016-May-20 04:33N 37°49' W 122°19'0 0.0
2016-May-20 03:33N 37°49' W 122°19'0 0.0
2016-May-20 02:33N 37°49' W 122°19'0 0.0
2016-May-20 01:33N 37°49' W 122°19'7 6.7
2016-May-20 00:33N 37°54' W 122°25'3 2.7
2016-May-19 23:33N 37°55' W 122°22'3 2.5
2016-May-19 22:26N 37°54' W 122°25'2 2.6
2016-May-19 21:33N 37°52' W 122°24'5 5.1
2016-May-19 20:33N 37°49' W 122°19'0 0.0
2016-May-19 19:33N 37°49' W 122°19'0 0.0
2016-May-19 18:33N 37°49' W 122°19'0 0.0
2016-May-19 17:33N 37°49' W 122°19'0 0.0
2016-May-19 16:33N 37°49' W 122°19'0 0.0
2016-May-19 15:33N 37°49' W 122°19'2 1.8
2016-May-19 14:33N 37°48' W 122°21'1 1.1
2016-May-19 13:33N 37°48' W 122°19'0 0.4
2016-May-19 12:33N 37°48' W 122°19'1 1.2
2016-May-19 11:33N 37°49' W 122°19'1 0.7
2016-May-19 10:33N 37°49' W 122°19'0 0.0
2016-May-19 09:33N 37°49' W 122°19'0 0.0
2016-May-19 08:33N 37°49' W 122°19'0 0.0
2016-May-19 07:33N 37°49' W 122°19'0 0.0
2016-May-19 06:33N 37°49' W 122°19'0 0.0
2016-May-19 05:34N 37°49' W 122°19'0 0.0
2016-May-19 04:33N 37°49' W 122°19'0 0.0
2016-May-19 03:33N 37°49' W 122°19'0 0.0
2016-May-19 02:33N 37°49' W 122°19'  

Dump ship's entire track history